Time;durP1;ratioP1;P1;durP2;ratioP2;P2;SDS_P1;SDS_P2;PMS_P1;PMS_P2;Temp;Humidity;BMP_temperature;BMP_pressure;BME280_temperature;BME280_humidity;BME280_pressure;Samples;Min_cycle;Max_cycle;Signal;HPM_P1;HPM_P2
2023/11/24 00:00:02;;;;;;;21.42;2.25;;;;;;;3.12;51.14;100765.16;5009529;28;20032;-69
2023/11/24 00:02:38;;;;;;;18.83;1.63;;;;;;;3.43;50.00;100749.34;5022180;28;20049;-70
2023/11/24 00:05:07;;;;;;;15.30;1.70;;;;;;;3.42;50.35;100765.69;5026374;28;20147;-71
2023/11/24 00:07:36;;;;;;;24.55;1.98;;;;;;;3.19;53.65;100813.28;5022434;28;20542;-69
2023/11/24 00:10:02;;;;;;;6.47;0.60;;;;;;;2.92;56.50;100798.06;5024639;28;20086;-68
2023/11/24 00:12:28;;;;;;;7.65;0.57;;;;;;;2.46;57.26;100777.81;5019747;28;20146;-68
2023/11/24 00:14:54;;;;;;;10.73;0.65;;;;;;;2.62;57.23;100781.97;5029464;28;20032;-69
2023/11/24 00:17:20;;;;;;;8.73;0.77;;;;;;;2.50;56.92;100774.34;5027012;28;20479;-69
2023/11/24 00:19:47;;;;;;;8.45;0.50;;;;;;;2.61;56.44;100761.34;5024770;28;20075;-69
2023/11/24 00:22:12;;;;;;;8.50;0.85;;;;;;;2.53;56.69;100759.69;5026835;28;20036;-69
2023/11/24 00:24:38;;;;;;;9.73;1.65;;;;;;;2.11;57.78;100766.03;5021499;28;20036;-69
2023/11/24 00:27:03;;;;;;;9.93;0.55;;;;;;;2.29;57.53;100758.16;5026676;28;20040;-70
2023/11/24 00:29:29;;;;;;;11.30;2.42;;;;;;;2.56;57.21;100757.09;5001684;28;20096;-70
2023/11/24 00:31:54;;;;;;;12.73;1.92;;;;;;;2.46;58.05;100752.84;5028335;28;20066;-68
2023/11/24 00:34:21;;;;;;;11.10;1.80;;;;;;;2.87;56.86;100745.63;5026650;28;20048;-68
2023/11/24 00:36:48;;;;;;;15.20;1.55;;;;;;;2.54;57.07;100745.06;5024648;28;20182;-68
2023/11/24 00:39:13;;;;;;;15.13;2.05;;;;;;;2.43;56.35;100741.72;5026490;28;20345;-70
2023/11/24 00:41:39;;;;;;;22.48;1.73;;;;;;;3.00;54.99;100738.59;5022765;28;20127;-70
2023/11/24 00:44:05;;;;;;;15.75;1.60;;;;;;;3.24;54.31;100740.06;5026367;28;20041;-70
2023/11/24 00:46:30;;;;;;;13.73;0.98;;;;;;;3.27;53.65;100738.31;5006392;28;20047;-70
2023/11/24 00:48:56;;;;;;;15.27;1.40;;;;;;;3.52;53.44;100733.72;5017023;28;20044;-70
2023/11/24 00:51:24;;;;;;;13.60;1.52;;;;;;;3.56;53.59;100729.34;5024263;28;20296;-70
2023/11/24 00:53:49;;;;;;;18.98;2.35;;;;;;;3.72;53.09;100723.13;5023488;28;20791;-70
2023/11/24 00:56:15;;;;;;;17.65;1.35;;;;;;;3.87;52.93;100724.59;5027439;28;20033;-70
2023/11/24 00:58:40;;;;;;;14.00;1.17;;;;;;;3.64;51.37;100721.50;5021265;28;20353;-66
2023/11/24 01:01:09;;;;;;;7.80;0.57;;;;;;;3.45;48.80;100721.75;5024263;28;20025;-67
2023/11/24 01:03:34;;;;;;;11.88;1.02;;;;;;;3.54;47.43;100713.03;5022994;28;20479;-66
2023/11/24 01:06:00;;;;;;;9.88;1.20;;;;;;;3.64;46.99;100716.34;5031368;28;20032;-67
2023/11/24 01:08:25;;;;;;;4.47;0.73;;;;;;;4.12;46.16;100713.88;5028062;28;20115;-68
2023/11/24 01:10:52;;;;;;;15.23;0.90;;;;;;;3.88;47.04;100709.97;5029951;28;20024;-67
2023/11/24 01:13:18;;;;;;;12.45;1.17;;;;;;;3.63;48.07;100712.03;5025398;28;20082;-68
2023/11/24 01:15:43;;;;;;;11.45;0.43;;;;;;;3.92;47.77;100727.16;5024975;28;20092;-68
2023/11/24 01:18:09;;;;;;;8.93;0.65;;;;;;;3.54;48.15;100728.53;5020104;28;20045;-69
2023/11/24 01:20:35;;;;;;;11.73;0.80;;;;;;;3.93;48.31;100724.53;5026040;28;20039;-67
2023/11/24 01:23:04;;;;;;;8.82;0.40;;;;;;;4.20;48.58;100737.91;5029288;28;20475;-70
2023/11/24 01:25:30;;;;;;;21.92;1.52;;;;;;;3.65;50.57;100741.28;5027274;28;20052;-69
2023/11/24 01:27:56;;;;;;;18.05;0.75;;;;;;;3.94;50.67;100741.75;5010146;28;20087;-69
2023/11/24 01:30:21;;;;;;;22.55;1.70;;;;;;;4.14;50.66;100743.19;5026610;28;20131;-70
2023/11/24 01:32:47;;;;;;;13.68;1.10;;;;;;;4.23;51.20;100750.81;5024149;28;20076;-70
2023/11/24 01:35:13;;;;;;;14.07;1.63;;;;;;;3.95;52.62;100742.63;5029625;28;20037;-70
2023/11/24 01:37:38;;;;;;;9.65;1.20;;;;;;;3.87;53.32;100753.03;5025265;28;20119;-68
2023/11/24 01:40:05;;;;;;;14.65;1.95;;;;;;;3.34;54.77;100749.44;5031588;28;20383;-70
2023/11/24 01:42:36;;;;;;;11.23;1.02;;;;;;;2.57;56.48;100739.88;5007329;28;20037;-70
2023/11/24 01:45:01;;;;;;;5.15;0.50;;;;;;;2.38;57.50;100764.09;5008511;28;20024;-70
2023/11/24 01:47:27;;;;;;;7.97;0.60;;;;;;;2.41;57.50;100766.69;5013565;28;20435;-70
2023/11/24 01:49:52;;;;;;;5.50;0.77;;;;;;;2.49;58.25;100777.81;5028713;28;20288;-71
2023/11/24 01:52:19;;;;;;;3.65;1.13;;;;;;;2.14;59.12;100769.44;5029047;28;20091;-71
2023/11/24 01:54:47;;;;;;;3.72;0.75;;;;;;;2.46;58.49;100783.81;5025493;28;20036;-71
2023/11/24 01:57:13;;;;;;;4.38;0.17;;;;;;;2.33;58.70;100772.75;5029978;28;20025;-70
2023/11/24 01:59:39;;;;;;;2.92;0.45;;;;;;;2.24;58.86;100767.66;5010148;28;20552;-70
2023/11/24 02:02:04;;;;;;;4.13;0.52;;;;;;;2.39;58.35;100765.84;5028412;28;20041;-69
2023/11/24 02:04:30;;;;;;;5.53;0.55;;;;;;;2.62;57.82;100758.75;5009451;28;20066;-68
2023/11/24 02:06:57;;;;;;;4.85;0.35;;;;;;;2.54;58.04;100765.72;5017753;28;20047;-68
2023/11/24 02:09:26;;;;;;;15.35;0.73;;;;;;;2.26;59.44;100763.31;5029378;28;20343;-69
2023/11/24 02:11:53;;;;;;;4.72;0.40;;;;;;;2.54;57.63;100750.22;5022575;28;20032;-68
2023/11/24 02:14:19;;;;;;;12.68;1.00;;;;;;;2.37;56.64;100755.50;5029528;28;20510;-69
2023/11/24 02:16:44;;;;;;;7.55;0.82;;;;;;;2.55;55.00;100749.34;5021670;28;20497;-69
2023/11/24 02:19:11;;;;;;;6.05;0.85;;;;;;;2.43;54.31;100744.31;5028948;28;20044;-69
2023/11/24 02:21:37;;;;;;;6.35;0.55;;;;;;;2.60;54.02;100755.34;5025470;28;20443;-68
2023/11/24 02:24:06;;;;;;;12.45;0.40;;;;;;;2.54;54.16;100745.06;5030218;28;20146;-67
2023/11/24 02:26:31;;;;;;;10.68;0.88;;;;;;;2.40;53.96;100746.88;5024677;28;20550;-68
2023/11/24 02:28:57;;;;;;;11.23;1.02;;;;;;;2.62;53.30;100763.91;5040588;28;20553;-68
2023/11/24 02:31:22;;;;;;;7.88;0.45;;;;;;;2.89;52.50;100761.94;5026374;28;20118;-68
2023/11/24 02:33:49;;;;;;;9.45;0.57;;;;;;;2.69;52.12;100763.00;5022816;28;20033;-67
2023/11/24 02:36:20;;;;;;;10.15;1.33;;;;;;;2.88;51.97;100749.91;5029197;28;20036;-67
2023/11/24 02:38:49;;;;;;;7.47;0.43;;;;;;;2.63;51.60;100733.81;5023547;28;20029;-68
2023/11/24 02:41:17;;;;;;;7.70;0.65;;;;;;;2.83;51.04;100736.22;5012641;28;20346;-68
2023/11/24 02:43:44;;;;;;;8.30;0.40;;;;;;;2.80;49.94;100741.38;5004786;28;20131;-67
2023/11/24 02:46:12;;;;;;;7.28;0.47;;;;;;;2.68;50.39;100732.88;5020546;28;20094;-68
2023/11/24 02:48:37;;;;;;;6.95;0.38;;;;;;;2.85;50.01;100749.94;5026295;28;20601;-70
2023/11/24 02:51:04;;;;;;;8.65;1.00;;;;;;;3.01;50.91;100743.75;5030439;28;20500;-70
2023/11/24 02:53:30;;;;;;;6.28;0.80;;;;;;;2.83;52.63;100747.38;5013400;28;20074;-71
2023/11/24 02:55:55;;;;;;;2.30;0.20;;;;;;;3.01;53.24;100746.34;5023512;28;20051;-67
2023/11/24 02:58:20;;;;;;;4.35;0.17;;;;;;;2.43;54.05;100750.31;5029298;28;20091;-69
2023/11/24 03:00:46;;;;;;;10.50;0.40;;;;;;;2.20;54.01;100758.22;5023139;28;20037;-70
2023/11/24 03:03:11;;;;;;;4.85;1.13;;;;;;;2.24;54.35;100762.50;5028293;28;20033;-68
2023/11/24 03:05:37;;;;;;;8.60;1.00;;;;;;;1.86;56.19;100747.25;5024745;28;20031;-70
2023/11/24 03:08:05;;;;;;;4.65;0.40;;;;;;;1.56;56.67;100732.84;5017678;28;20137;-67
2023/11/24 03:10:31;;;;;;;4.25;0.10;;;;;;;1.47;56.85;100721.72;5028840;28;20136;-68
2023/11/24 03:12:57;;;;;;;4.38;0.20;;;;;;;1.63;56.55;100724.22;5021971;28;20128;-68
2023/11/24 03:15:22;;;;;;;8.00;0.20;;;;;;;1.78;56.25;100708.66;5028072;28;20209;-70
2023/11/24 03:17:48;;;;;;;4.22;0.30;;;;;;;1.54;56.06;100717.38;5022510;28;20044;-70
2023/11/24 03:20:14;;;;;;;6.07;0.40;;;;;;;2.03;55.13;100716.25;5027670;28;20041;-68
2023/11/24 03:22:39;;;;;;;10.13;0.40;;;;;;;2.02;55.20;100709.34;5013939;28;20037;-68
2023/11/24 03:25:07;;;;;;;3.88;0.50;;;;;;;2.17;54.95;100718.72;5028420;28;21998;-70
2023/11/24 03:27:34;;;;;;;8.18;1.00;;;;;;;2.33;55.01;100715.13;5028433;28;20403;-70
2023/11/24 03:29:59;;;;;;;9.73;0.50;;;;;;;2.23;55.34;100710.94;5023404;28;20033;-68
2023/11/24 03:32:27;;;;;;;12.07;0.57;;;;;;;1.99;54.05;100724.84;5028653;28;20064;-67
2023/11/24 03:34:53;;;;;;;6.63;0.80;;;;;;;2.50;52.44;100728.75;5024112;28;20479;-70
2023/11/24 03:37:19;;;;;;;9.20;0.88;;;;;;;2.20;52.30;100710.94;5016970;28;20403;-70
2023/11/24 03:39:44;;;;;;;4.32;0.30;;;;;;;2.20;53.58;100716.97;5025673;28;20049;-69
2023/11/24 03:42:10;;;;;;;7.47;0.70;;;;;;;2.17;54.05;100714.41;5025342;28;20040;-70
2023/11/24 03:44:35;;;;;;;12.50;0.60;;;;;;;2.40;53.46;100710.78;5026715;28;20040;-68
2023/11/24 03:47:01;;;;;;;3.42;0.17;;;;;;;2.13;52.89;100704.97;5024589;28;20052;-68
2023/11/24 03:49:26;;;;;;;3.97;0.73;;;;;;;2.39;51.52;100697.03;5009688;28;20516;-68
2023/11/24 03:51:52;;;;;;;5.47;0.32;;;;;;;2.15;51.77;100692.94;5022802;28;20064;-69
2023/11/24 03:54:21;;;;;;;4.68;0.65;;;;;;;2.16;51.90;100684.34;5026341;28;20047;-66
2023/11/24 03:56:47;;;;;;;3.95;0.35;;;;;;;2.08;52.57;100683.53;5025887;28;20037;-67
2023/11/24 03:59:13;;;;;;;2.75;0.60;;;;;;;2.52;51.77;100687.47;5005613;28;20322;-67
2023/11/24 04:01:38;;;;;;;12.32;0.90;;;;;;;2.68;51.19;100693.31;5025593;28;20491;-68
2023/11/24 04:04:04;;;;;;;8.23;1.33;;;;;;;2.68;51.64;100690.75;5027031;28;20491;-68
2023/11/24 04:06:30;;;;;;;6.85;0.43;;;;;;;2.53;50.65;100696.91;5028098;28;20024;-68
2023/11/24 04:08:55;;;;;;;5.57;0.40;;;;;;;2.59;51.36;100694.28;5022770;28;20044;-67
2023/11/24 04:11:21;;;;;;;9.77;0.52;;;;;;;2.75;51.02;100685.50;5026943;28;20037;-68
2023/11/24 04:13:47;;;;;;;7.25;0.70;;;;;;;2.80;50.56;100671.69;5024742;28;20053;-69
2023/11/24 04:16:14;;;;;;;5.13;0.68;;;;;;;2.58;51.19;100671.94;5016780;28;20039;-69
2023/11/24 04:18:40;;;;;;;5.22;0.17;;;;;;;2.52;51.52;100669.41;5024408;28;20229;-69
2023/11/24 04:21:06;;;;;;;5.00;0.60;;;;;;;2.48;51.61;100657.41;5024725;28;20459;-68
2023/11/24 04:23:31;;;;;;;12.63;1.00;;;;;;;2.53;51.34;100658.19;5027177;28;20163;-67
2023/11/24 04:25:57;;;;;;;6.38;0.40;;;;;;;2.33;50.34;100653.22;5038470;28;20505;-67
2023/11/24 04:28:23;;;;;;;9.18;0.40;;;;;;;2.61;48.95;100645.25;5010271;28;20095;-67
2023/11/24 04:30:48;;;;;;;10.85;0.68;;;;;;;2.33;47.00;100638.63;5023551;28;20388;-66
2023/11/24 04:33:14;;;;;;;12.52;0.90;;;;;;;2.80;46.87;100644.19;5024523;28;20404;-66
2023/11/24 04:35:39;;;;;;;15.15;1.85;;;;;;;2.43;46.93;100636.81;5024772;28;20089;-66
2023/11/24 04:38:05;;;;;;;10.57;0.65;;;;;;;2.74;46.39;100624.44;5026195;28;20663;-66
2023/11/24 04:40:31;;;;;;;9.18;0.32;;;;;;;2.87;45.96;100620.00;5030300;28;20041;-71
2023/11/24 04:42:56;;;;;;;6.32;0.22;;;;;;;2.65;44.90;100624.53;5026001;28;20044;-69
2023/11/24 04:45:22;;;;;;;4.20;0.30;;;;;;;2.76;44.44;100621.84;5033515;28;20037;-70
2023/11/24 04:47:47;;;;;;;5.20;0.50;;;;;;;2.56;44.41;100606.59;5025704;28;20703;-69
2023/11/24 04:50:16;;;;;;;8.85;0.35;;;;;;;2.75;44.19;100615.81;5031396;28;20310;-65
2023/11/24 04:52:41;;;;;;;4.28;0.25;;;;;;;2.65;44.75;100610.78;5026087;28;20053;-65
2023/11/24 04:55:07;;;;;;;6.90;0.57;;;;;;;2.82;44.95;100606.25;5029438;28;20099;-65
2023/11/24 04:57:33;;;;;;;5.05;0.40;;;;;;;2.41;45.75;100599.00;5030036;28;20037;-69
2023/11/24 05:00:00;;;;;;;5.00;0.82;;;;;;;2.70;44.96;100596.94;5024878;28;20032;-69
2023/11/24 05:02:27;;;;;;;12.73;0.88;;;;;;;2.70;45.49;100596.94;5031899;28;20053;-68
2023/11/24 05:04:54;;;;;;;12.77;1.13;;;;;;;2.96;45.48;100630.19;5024433;28;20110;-68
2023/11/24 05:07:21;;;;;;;6.50;0.60;;;;;;;2.56;50.78;100634.97;5028943;28;20029;-67
2023/11/24 05:09:47;;;;;;;16.85;2.40;;;;;;;1.86;53.30;100629.59;5027371;28;20040;-68
2023/11/24 05:12:13;;;;;;;23.65;2.22;;;;;;;1.54;54.71;100619.50;5028372;28;20044;-68
2023/11/24 05:14:39;;;;;;;15.95;1.27;;;;;;;1.37;55.37;100618.72;5022687;28;20109;-68
2023/11/24 05:17:05;;;;;;;16.58;1.33;;;;;;;1.07;57.13;100623.16;5025029;28;20067;-68
2023/11/24 05:19:31;;;;;;;17.05;1.33;;;;;;;0.93;56.60;100612.94;5031274;28;20041;-68
2023/11/24 05:21:56;;;;;;;4.72;0.52;;;;;;;1.20;53.87;100600.81;5026667;28;21516;-69
2023/11/24 05:24:22;;;;;;;9.98;0.28;;;;;;;1.49;51.87;100610.97;5031011;28;20160;-70
2023/11/24 05:26:47;;;;;;;7.00;0.85;;;;;;;1.10;52.26;100639.47;5026128;28;20124;-66
2023/11/24 05:29:13;;;;;;;3.38;0.22;;;;;;;1.24;51.63;100605.06;5035874;28;20135;-74
2023/11/24 05:31:38;;;;;;;0.98;0.30;;;;;;;1.73;50.39;100597.06;5031148;28;20029;-74
2023/11/24 05:34:05;;;;;;;2.95;0.10;;;;;;;1.58;48.94;100592.00;5023841;28;20048;-75
2023/11/24 05:36:31;;;;;;;8.13;0.20;;;;;;;1.64;49.49;100600.56;5028700;28;20029;-65
2023/11/24 05:38:57;;;;;;;5.85;0.30;;;;;;;1.60;50.00;100598.00;5025874;28;20052;-67
2023/11/24 05:41:23;;;;;;;2.17;0.20;;;;;;;1.75;50.42;100592.72;5035332;28;20033;-67
2023/11/24 05:43:49;;;;;;;5.07;0.35;;;;;;;1.48;51.11;100568.91;5015671;28;20072;-69
2023/11/24 05:46:15;;;;;;;8.65;0.52;;;;;;;1.48;51.35;100579.19;5033381;28;20144;-66
2023/11/24 05:48:40;;;;;;;4.45;0.80;;;;;;;1.81;50.73;100566.06;5028667;28;20435;-67
2023/11/24 05:51:05;;;;;;;7.18;0.50;;;;;;;2.00;50.57;100564.16;5024895;28;20053;-66
2023/11/24 05:53:31;;;;;;;5.85;0.32;;;;;;;1.92;50.61;100562.50;5008959;28;20450;-66
2023/11/24 05:55:57;;;;;;;6.53;0.82;;;;;;;1.81;51.39;100543.72;5025776;28;20032;-65
2023/11/24 05:58:23;;;;;;;8.15;0.98;;;;;;;1.82;51.34;100542.84;5029254;28;20507;-69
2023/11/24 06:00:49;;;;;;;7.53;0.43;;;;;;;1.78;52.00;100541.16;5025111;28;20156;-68
2023/11/24 06:03:15;;;;;;;3.08;0.52;;;;;;;2.00;51.84;100525.47;5029927;28;20053;-69
2023/11/24 06:05:41;;;;;;;10.88;0.90;;;;;;;1.86;52.08;100544.53;5027489;28;20048;-69
2023/11/24 06:08:06;;;;;;;5.55;0.70;;;;;;;1.45;53.50;100566.31;5025657;28;20044;-69
2023/11/24 06:10:32;;;;;;;7.88;0.35;;;;;;;1.55;53.48;100543.94;5028976;28;20453;-69
2023/11/24 06:12:57;;;;;;;7.72;1.17;;;;;;;1.51;53.85;100557.72;5024671;28;20534;-68
2023/11/24 06:15:24;;;;;;;11.77;0.65;;;;;;;1.25;54.86;100563.84;5028562;28;20137;-69
2023/11/24 06:17:50;;;;;;;6.78;0.50;;;;;;;1.20;55.17;100567.34;5025624;28;20064;-69
2023/11/24 06:20:16;;;;;;;6.47;0.28;;;;;;;1.14;55.26;100557.06;5029408;28;20032;-68
2023/11/24 06:22:44;;;;;;;9.55;0.70;;;;;;;1.37;54.70;100554.31;5027063;28;20056;-69
2023/11/24 06:25:10;;;;;;;9.70;0.63;;;;;;;1.49;54.45;100547.41;5021245;28;20444;-69
2023/11/24 06:27:37;;;;;;;5.72;0.50;;;;;;;1.66;54.27;100547.28;5027056;28;20515;-68
2023/11/24 06:30:06;;;;;;;7.93;0.95;;;;;;;1.78;53.82;100538.59;5024216;28;20167;-67
2023/11/24 06:32:35;;;;;;;8.57;1.08;;;;;;;1.55;54.61;100545.66;5027672;28;20052;-67
2023/11/24 06:35:01;;;;;;;13.73;0.30;;;;;;;1.50;54.48;100559.41;5022032;28;20033;-67
2023/11/24 06:37:27;;;;;;;5.78;0.85;;;;;;;1.91;54.17;100550.50;5026158;28;21034;-67
2023/11/24 06:39:52;;;;;;;4.57;0.25;;;;;;;1.27;55.86;100553.53;5024536;28;20100;-67
2023/11/24 06:42:18;;;;;;;10.43;0.73;;;;;;;0.83;57.00;100528.91;5024015;28;20576;-67
2023/11/24 06:44:44;;;;;;;6.53;0.63;;;;;;;0.97;57.24;100519.41;5029176;28;20039;-70
2023/11/24 06:47:10;;;;;;;8.95;0.38;;;;;;;0.82;57.43;100525.50;5022707;28;20111;-71
2023/11/24 06:49:36;;;;;;;6.05;0.82;;;;;;;1.07;56.78;100526.19;5030575;28;20032;-72
2023/11/24 06:52:01;;;;;;;5.10;0.65;;;;;;;0.86;56.88;100524.63;5023933;28;20028;-72
2023/11/24 06:54:29;;;;;;;1.63;0.45;;;;;;;0.89;56.01;100534.88;5027731;28;20103;-74
2023/11/24 06:56:55;;;;;;;12.35;0.82;;;;;;;1.20;54.57;100541.59;5026342;28;20084;-73
2023/11/24 06:59:22;;;;;;;3.75;0.55;;;;;;;1.23;54.47;100551.84;5041030;28;20052;-73
2023/11/24 07:01:54;;;;;;;10.82;1.05;;;;;;;0.88;55.04;100558.91;5027642;28;20033;-73
2023/11/24 07:04:20;;;;;;;;;;;;;;;0.92;54.37;100567.47;5028409;28;20056;-69
2023/11/24 07:06:46;;;;;;;12.65;0.68;;;;;;;1.00;54.16;100558.00;5028530;28;19916;-69
2023/11/24 07:09:12;;;;;;;6.35;1.50;;;;;;;1.16;54.12;100555.34;5022484;28;20553;-70
2023/11/24 07:11:38;;;;;;;8.93;0.43;;;;;;;1.15;53.86;100548.47;5027898;28;20040;-68
2023/11/24 07:14:03;;;;;;;2.60;0.20;;;;;;;1.15;53.66;100540.75;5023079;28;20048;-70
2023/11/24 07:16:29;;;;;;;2.08;0.20;;;;;;;1.48;52.42;100538.00;5026750;28;20415;-67
2023/11/24 07:18:55;;;;;;;1.35;0.20;;;;;;;1.41;52.72;100536.31;5022471;28;20040;-67
2023/11/24 07:21:21;;;;;;;3.38;0.28;;;;;;;1.54;52.73;100526.75;5027017;28;20045;-68
2023/11/24 07:23:47;;;;;;;7.80;0.70;;;;;;;1.48;53.53;100530.25;5025664;28;20434;-71
2023/11/24 07:26:17;;;;;;;9.05;0.63;;;;;;;1.84;53.20;100535.97;5021260;28;20040;-71
2023/11/24 07:28:44;;;;;;;6.28;0.60;;;;;;;1.59;52.95;100524.16;5009765;28;20140;-67
2023/11/24 07:31:17;;;;;;;5.05;0.38;;;;;;;1.77;51.39;100520.56;5024267;28;20187;-69
2023/11/24 07:33:48;;;;;;;3.20;0.20;;;;;;;1.80;49.98;100503.34;5028020;28;20549;-69
2023/11/24 07:36:21;;;;;;;5.93;0.30;;;;;;;1.78;49.16;100504.25;5040115;28;20043;-68
2023/11/24 07:38:47;;;;;;;7.40;0.30;;;;;;;1.96;49.04;100508.38;5027579;28;20186;-69
2023/11/24 07:41:14;;;;;;;3.10;0.10;;;;;;;2.18;48.90;100517.59;5023644;28;20033;-71
2023/11/24 07:43:40;;;;;;;10.77;0.85;;;;;;;2.33;48.57;100527.72;5029161;28;20256;-68
2023/11/24 07:46:06;;;;;;;15.73;1.35;;;;;;;2.60;48.77;100546.34;5022109;28;20521;-67
2023/11/24 07:48:33;;;;;;;9.63;0.65;;;;;;;1.96;48.79;100554.75;5025658;28;20045;-67
2023/11/24 07:51:01;;;;;;;5.10;0.65;;;;;;;1.90;49.65;100530.72;5023459;28;20029;-66
2023/11/24 07:53:27;;;;;;;1.55;0.52;;;;;;;1.31;50.22;100524.34;5027819;28;20132;-72
2023/11/24 07:55:52;;;;;;;0.60;0.10;;;;;;;1.37;49.06;100513.97;5025238;28;20037;-73
2023/11/24 07:58:19;;;;;;;5.32;0.30;;;;;;;1.18;49.01;100496.97;5024787;28;20045;-72
2023/11/24 08:00:45;;;;;;;7.47;0.25;;;;;;;1.76;48.55;100491.38;5025200;28;20426;-69
2023/11/24 08:03:12;;;;;;;8.73;0.30;;;;;;;1.73;48.23;100496.56;5022324;28;20819;-70
2023/11/24 08:05:41;;;;;;;12.70;1.08;;;;;;;1.85;48.51;100495.59;5024530;28;20160;-68
2023/11/24 08:08:07;;;;;;;15.13;1.85;;;;;;;1.80;48.39;100482.75;5019851;28;20076;-66
2023/11/24 08:10:32;;;;;;;11.30;1.00;;;;;;;1.95;47.51;100476.56;5023692;28;20120;-65
2023/11/24 08:12:58;;;;;;;8.88;1.25;;;;;;;2.20;47.21;100481.44;5021934;28;20128;-66
2023/11/24 08:15:24;;;;;;;8.30;1.23;;;;;;;2.23;46.57;100473.69;5027733;28;20045;-64
2023/11/24 08:17:50;;;;;;;7.88;0.73;;;;;;;2.87;45.74;100484.91;5007201;28;20389;-66
2023/11/24 08:20:16;;;;;;;7.05;1.35;;;;;;;3.10;45.39;100477.66;5023319;28;20512;-65
2023/11/24 08:22:41;;;;;;;7.70;0.60;;;;;;;3.15;45.73;100475.00;5021896;28;20055;-64
2023/11/24 08:25:09;;;;;;;14.02;1.40;;;;;;;3.16;46.69;100480.16;5012763;28;20096;-65
2023/11/24 08:27:35;;;;;;;10.27;0.50;;;;;;;3.01;46.78;100472.63;5018294;28;20037;-65
2023/11/24 08:30:04;;;;;;;15.27;2.15;;;;;;;2.63;46.85;100463.72;5019593;28;20033;-65
2023/11/24 08:32:30;;;;;;;10.93;0.88;;;;;;;2.78;46.57;100475.56;5019832;28;20095;-65
2023/11/24 08:34:56;;;;;;;13.57;1.77;;;;;;;2.60;46.83;100476.66;5022535;28;20025;-65
2023/11/24 08:37:23;;;;;;;4.88;0.55;;;;;;;2.42;46.64;100469.16;5022797;28;20514;-64
2023/11/24 08:39:48;;;;;;;10.35;1.38;;;;;;;2.46;46.13;100463.09;5024492;28;20469;-65
2023/11/24 08:42:14;;;;;;;11.68;1.08;;;;;;;2.79;46.57;100466.09;5019977;28;20071;-64
2023/11/24 08:44:40;;;;;;;8.00;0.77;;;;;;;3.41;45.78;100464.31;5024934;28;20506;-64
2023/11/24 08:47:06;;;;;;;14.27;1.35;;;;;;;3.46;45.40;100446.13;5022236;28;20116;-66
2023/11/24 08:49:32;;;;;;;11.70;1.02;;;;;;;3.02;45.69;100445.94;5023298;28;20192;-65
2023/11/24 08:51:58;;;;;;;8.00;1.13;;;;;;;3.47;44.46;100446.13;5004694;28;20082;-65
2023/11/24 08:54:23;;;;;;;8.57;0.73;;;;;;;4.49;42.47;100449.31;5023852;28;20045;-66
2023/11/24 08:56:49;;;;;;;9.70;0.43;;;;;;;4.13;42.34;100451.78;5026221;28;20040;-65
2023/11/24 08:59:14;;;;;;;7.60;0.80;;;;;;;3.78;43.52;100461.06;5018470;28;20121;-66
2023/11/24 09:01:40;;;;;;;6.32;1.00;;;;;;;3.26;46.18;100456.75;5025748;28;20029;-64
2023/11/24 09:04:05;;;;;;;5.88;0.65;;;;;;;3.29;47.92;100456.75;5023216;28;20045;-65
2023/11/24 09:06:31;;;;;;;9.82;0.70;;;;;;;2.89;49.02;100452.16;5015608;28;20366;-66
2023/11/24 09:08:58;;;;;;;14.05;2.38;;;;;;;3.17;48.25;100456.03;5022334;28;20037;-64
2023/11/24 09:11:25;;;;;;;4.93;0.75;;;;;;;2.92;49.23;100454.72;5025924;28;20032;-65
2023/11/24 09:13:51;;;;;;;8.70;0.82;;;;;;;2.75;49.47;100442.88;5022121;28;20053;-65
2023/11/24 09:16:18;;;;;;;6.38;0.75;;;;;;;2.46;50.83;100439.88;5020248;28;21235;-64
2023/11/24 09:18:44;;;;;;;8.07;0.90;;;;;;;2.20;50.80;100428.16;5023647;28;20032;-65
2023/11/24 09:21:10;;;;;;;9.38;0.28;;;;;;;2.34;51.37;100431.41;5021000;28;20059;-65
2023/11/24 09:23:39;;;;;;;8.65;0.75;;;;;;;2.43;51.05;100425.28;5026481;28;20218;-65
2023/11/24 09:26:09;;;;;;;14.10;0.90;;;;;;;2.79;49.91;100411.88;5023284;28;20262;-65
2023/11/24 09:28:36;;;;;;;10.43;0.68;;;;;;;2.87;48.70;100412.63;5026393;28;20033;-64
2023/11/24 09:31:08;;;;;;;9.27;1.77;;;;;;;2.79;49.57;100419.63;5022951;28;20498;-65
2023/11/24 09:33:36;;;;;;;7.25;0.50;;;;;;;3.69;47.69;100406.94;5025876;28;20047;-66
2023/11/24 09:36:02;;;;;;;4.95;0.25;;;;;;;3.52;46.98;100392.63;5023812;28;20029;-67
2023/11/24 09:38:28;;;;;;;7.72;0.40;;;;;;;3.85;45.92;100395.44;5025219;28;20460;-64
2023/11/24 09:41:00;;;;;;;4.22;0.55;;;;;;;3.62;46.36;100402.78;5021835;28;20086;-65
2023/11/24 09:43:26;;;;;;;;;;;;;;;3.80;46.84;100412.75;5028895;28;20198;-65
2023/11/24 09:45:51;;;;;;;10.98;0.70;;;;;;;3.53;48.10;100412.41;5026256;28;20364;-66
2023/11/24 09:48:17;;;;;;;4.88;0.82;;;;;;;3.35;47.96;100405.81;5024674;28;20056;-65
2023/11/24 09:50:44;;;;;;;17.17;1.17;;;;;;;3.10;47.52;100400.19;5025867;28;20162;-65
2023/11/24 09:53:13;;;;;;;9.18;0.85;;;;;;;2.93;48.49;100399.59;5020894;28;20456;-65
2023/11/24 09:55:41;;;;;;;12.75;1.88;;;;;;;3.25;48.23;100388.75;5021907;28;20063;-65
2023/11/24 09:58:07;;;;;;;16.40;1.27;;;;;;;3.38;48.62;100420.41;5009713;28;20672;-65
2023/11/24 10:00:33;;;;;;;6.38;0.40;;;;;;;2.20;54.11;100453.97;5021056;28;20040;-64
2023/11/24 10:02:59;;;;;;;17.23;1.45;;;;;;;0.93;58.65;100445.66;5022241;28;20051;-65
2023/11/24 10:05:29;;;;;;;10.55;0.90;;;;;;;0.93;59.20;100414.78;5021803;28;20032;-65
2023/11/24 10:07:55;;;;;;;8.90;0.50;;;;;;;0.86;58.33;100408.00;5023296;28;20283;-65
2023/11/24 10:10:22;;;;;;;5.63;0.85;;;;;;;0.50;58.18;100409.91;5020828;28;20033;-65
2023/11/24 10:12:50;;;;;;;8.90;0.63;;;;;;;0.90;56.84;100386.50;5021445;28;20612;-65
2023/11/24 10:15:16;;;;;;;11.25;2.47;;;;;;;1.35;56.96;100371.53;5021530;28;20372;-65
2023/11/24 10:17:45;;;;;;;5.65;0.70;;;;;;;1.31;56.61;100375.00;5014614;28;20045;-65
2023/11/24 10:20:11;;;;;;;7.72;1.15;;;;;;;1.09;57.90;100389.78;5021794;28;20029;-66
2023/11/24 10:22:37;;;;;;;3.97;0.70;;;;;;;1.26;56.30;100381.88;5020861;28;20131;-65
2023/11/24 10:25:12;;;;;;;3.88;0.40;;;;;;;1.10;55.22;100386.31;5022195;28;20491;-64
2023/11/24 10:27:40;;;;;;;4.47;0.10;;;;;;;1.09;53.53;100371.75;5022912;28;21133;-65
2023/11/24 10:30:06;;;;;;;0.60;0.08;;;;;;;1.05;52.77;100342.63;5021635;28;20033;-64
2023/11/24 10:32:32;;;;;;;6.82;0.45;;;;;;;1.13;51.61;100328.81;5023936;28;20043;-66
2023/11/24 10:35:00;;;;;;;8.45;0.20;;;;;;;1.36;51.20;100316.56;5021941;28;20108;-65
2023/11/24 10:37:27;;;;;;;3.15;0.22;;;;;;;1.41;52.05;100327.69;5017428;28;20039;-64
2023/11/24 10:40:01;;;;;;;8.30;0.65;;;;;;;1.77;52.51;100323.00;5022951;28;20519;-64
2023/11/24 10:42:31;;;;;;;3.45;0.20;;;;;;;1.71;52.82;100323.94;5019923;28;20504;-65
2023/11/24 10:45:00;;;;;;;11.73;0.43;;;;;;;1.80;52.33;100306.66;5022714;28;20661;-65
2023/11/24 10:47:34;;;;;;;8.10;0.32;;;;;;;2.19;52.21;100299.25;5021048;28;20043;-65
2023/11/24 10:50:07;;;;;;;3.30;0.40;;;;;;;2.67;51.22;100292.50;5027045;28;20044;-65
2023/11/24 10:52:41;;;;;;;12.27;2.20;;;;;;;3.11;50.43;100282.25;5013664;28;20052;-66
2023/11/24 10:55:13;;;;;;;9.48;1.00;;;;;;;2.82;49.57;100311.16;5023692;28;20412;-66
2023/11/24 10:57:43;;;;;;;11.45;0.85;;;;;;;2.49;51.36;100287.63;5023591;28;20050;-66
2023/11/24 11:00:09;;;;;;;13.10;1.17;;;;;;;1.86;54.24;100281.69;5006719;28;20113;-65
2023/11/24 11:02:42;;;;;;;9.13;0.63;;;;;;;1.22;56.42;100287.56;5023532;28;20041;-65
2023/11/24 11:05:23;;;;;;;8.40;1.17;;;;;;;1.35;57.48;100289.13;5023801;28;20743;-65
2023/11/24 11:08:06;;;;;;;13.43;2.05;;;;;;;1.55;56.92;100288.06;5023033;28;20041;-64
2023/11/24 11:10:44;;;;;;;11.50;1.65;;;;;;;1.93;55.43;100278.13;5027642;28;20021;-64
2023/11/24 11:13:12;;;;;;;9.05;0.50;;;;;;;2.03;53.99;100267.69;5023028;28;20463;-65
2023/11/24 11:15:38;;;;;;;4.55;0.88;;;;;;;2.43;53.00;100259.34;5026077;28;20045;-64
2023/11/24 11:18:13;;;;;;;6.22;0.55;;;;;;;2.72;51.87;100256.28;5023930;28;20055;-65
2023/11/24 11:20:44;;;;;;;13.07;0.77;;;;;;;2.96;50.91;100252.44;5018504;28;20025;-64
2023/11/24 11:23:15;;;;;;;16.33;1.02;;;;;;;2.99;50.32;100242.03;5022144;28;20422;-66
2023/11/24 11:25:50;;;;;;;6.55;1.20;;;;;;;3.01;49.43;100245.44;5021502;28;20032;-65
2023/11/24 11:28:23;;;;;;;9.90;1.17;;;;;;;3.36;48.05;100243.94;5020946;28;20436;-65